Time;durP1;ratioP1;P1;durP2;ratioP2;P2;SDS_P1;SDS_P2;PMS_P1;PMS_P2;Temp;Humidity;BMP_temperature;BMP_pressure;BME280_temperature;BME280_humidity;BME280_pressure;Samples;Min_cycle;Max_cycle;Signal;HPM_P1;HPM_P2
2021/03/11 00:00:44;;;;;;;25.17;15.70;;;3.70;99.90;;;;;;5033972;28;20906;-74
2021/03/11 00:03:10;;;;;;;24.57;16.33;;;3.60;99.90;;;;;;5034471;28;20410;-74
2021/03/11 00:05:37;;;;;;;23.03;15.83;;;3.60;99.90;;;;;;5034507;28;20410;-74
2021/03/11 00:08:03;;;;;;;22.73;16.40;;;3.60;99.90;;;;;;5033872;28;20410;-73
2021/03/11 00:10:29;;;;;;;21.40;15.80;;;3.50;99.90;;;;;;5033882;28;20820;-73
2021/03/11 00:12:55;;;;;;;22.67;15.90;;;3.50;99.90;;;;;;5033758;28;20512;-74
2021/03/11 00:15:22;;;;;;;25.10;16.80;;;3.50;99.90;;;;;;5033578;28;20422;-73
2021/03/11 00:17:48;;;;;;;24.10;18.23;;;3.50;99.90;;;;;;5033485;28;20163;-73
2021/03/11 00:20:20;;;;;;;25.23;18.67;;;3.50;99.90;;;;;;5033822;28;20494;-74
2021/03/11 00:22:46;;;;;;;24.40;17.07;;;3.50;99.90;;;;;;5026318;28;20207;-74
2021/03/11 00:25:13;;;;;;;27.03;17.73;;;3.50;99.90;;;;;;5013865;28;20463;-73
2021/03/11 00:27:39;;;;;;;25.70;17.03;;;3.50;99.90;;;;;;5013773;28;20407;-73
2021/03/11 00:30:07;;;;;;;28.57;18.70;;;3.50;99.90;;;;;;5013702;28;20409;-73
2021/03/11 00:32:33;;;;;;;28.87;17.93;;;3.50;99.90;;;;;;5013355;28;20885;-72
2021/03/11 00:34:58;;;;;;;31.90;18.10;;;3.50;99.90;;;;;;5013774;28;20424;-73
2021/03/11 00:37:24;;;;;;;24.43;18.67;;;3.50;99.90;;;;;;5013505;28;20168;-73
2021/03/11 00:39:50;;;;;;;29.10;19.43;;;3.50;99.90;;;;;;5013245;28;20184;-73
2021/03/11 00:42:15;;;;;;;27.10;17.60;;;3.50;99.90;;;;;;5017420;28;20231;-73
2021/03/11 00:44:40;;;;;;;33.93;18.43;;;3.50;99.90;;;;;;5032932;28;20192;-73
2021/03/11 00:47:07;;;;;;;35.80;19.37;;;3.40;99.90;;;;;;5032750;28;20218;-73
2021/03/11 00:49:33;;;;;;;26.40;19.53;;;3.50;99.90;;;;;;5033029;28;20175;-74
2021/03/11 00:52:00;;;;;;;28.70;19.40;;;3.50;99.90;;;;;;5015289;28;20465;-73
2021/03/11 00:54:26;;;;;;;30.90;19.30;;;3.40;99.90;;;;;;5033044;28;20445;-74
2021/03/11 00:56:51;;;;;;;32.73;20.80;;;3.40;99.90;;;;;;5032868;28;20399;-72
2021/03/11 00:59:17;;;;;;;24.27;18.20;;;3.40;99.90;;;;;;5033155;28;20409;-73
2021/03/11 01:01:42;;;;;;;28.83;19.00;;;3.40;99.90;;;;;;5033187;28;20179;-73
2021/03/11 01:04:08;;;;;;;27.40;20.60;;;3.40;99.90;;;;;;5032988;28;20198;-74
2021/03/11 01:06:33;;;;;;;28.47;19.63;;;3.40;99.90;;;;;;5032758;28;20627;-72
2021/03/11 01:08:59;;;;;;;32.73;19.13;;;3.40;99.90;;;;;;5032257;28;20410;-73
2021/03/11 01:11:24;;;;;;;27.40;18.80;;;3.30;99.90;;;;;;5024676;28;20180;-73
2021/03/11 01:13:50;;;;;;;33.60;19.23;;;3.30;99.90;;;;;;5032633;28;20238;-73
2021/03/11 01:16:15;;;;;;;36.27;21.23;;;3.40;99.90;;;;;;5032618;28;20632;-75
2021/03/11 01:18:41;;;;;;;31.10;19.37;;;3.30;99.90;;;;;;5033089;28;20167;-73
2021/03/11 01:21:06;;;;;;;34.67;21.47;;;3.30;99.90;;;;;;5032926;28;20543;-73
2021/03/11 01:23:32;;;;;;;31.10;21.37;;;3.40;99.90;;;;;;5032957;28;20215;-73
2021/03/11 01:25:58;;;;;;;32.87;21.70;;;3.40;99.90;;;;;;5036065;28;20178;-73
2021/03/11 01:28:23;;;;;;;32.33;21.10;;;3.40;99.90;;;;;;5029946;28;20184;-73
2021/03/11 01:30:49;;;;;;;31.23;19.27;;;3.40;99.90;;;;;;5029982;28;20204;-73
2021/03/11 01:33:14;;;;;;;33.33;19.50;;;3.40;99.90;;;;;;5016944;28;20211;-74
2021/03/11 01:35:40;;;;;;;31.67;20.90;;;3.40;99.90;;;;;;5012141;28;20168;-74
2021/03/11 01:38:06;;;;;;;39.20;20.67;;;3.40;99.90;;;;;;5012892;28;20172;-74
2021/03/11 01:40:33;;;;;;;32.03;22.20;;;3.50;99.90;;;;;;5012921;28;20178;-74
2021/03/11 01:42:59;;;;;;;33.10;21.83;;;3.50;99.90;;;;;;5022054;28;20926;-74
2021/03/11 01:45:25;;;;;;;34.87;20.83;;;3.50;99.90;;;;;;5032152;28;20429;-74
2021/03/11 01:47:51;;;;;;;41.40;22.17;;;3.50;99.90;;;;;;5032784;28;20406;-74
2021/03/11 01:50:16;;;;;;;34.13;20.47;;;3.50;99.90;;;;;;5032543;28;20199;-74
2021/03/11 01:52:42;;;;;;;31.60;21.43;;;3.50;99.90;;;;;;5014701;28;20257;-75
2021/03/11 01:55:09;;;;;;;33.40;21.50;;;3.60;99.90;;;;;;5032077;28;20199;-74
2021/03/11 01:57:36;;;;;;;32.13;21.47;;;3.60;99.90;;;;;;5031886;28;20460;-74
2021/03/11 02:00:05;;;;;;;32.80;21.43;;;3.60;99.90;;;;;;5031860;28;20449;-73
2021/03/11 02:02:30;;;;;;;31.67;21.53;;;3.60;99.90;;;;;;5032105;28;20410;-73
2021/03/11 02:04:56;;;;;;;37.93;22.77;;;3.60;99.90;;;;;;5032204;28;20545;-73
2021/03/11 02:07:22;;;;;;;34.13;22.17;;;3.60;99.90;;;;;;5030969;28;20225;-73
2021/03/11 02:09:47;;;;;;;34.10;21.67;;;3.60;99.90;;;;;;5016876;28;20267;-72
2021/03/11 02:12:58;;;;;;;38.27;23.60;;;3.60;99.90;;;;;;5012177;28;20939;-73
2021/03/11 02:15:49;;;;;;;34.40;23.30;;;3.60;99.90;;;;;;5000675;28;20350;-72
2021/03/11 02:18:22;;;;;;;35.07;21.60;;;3.60;99.90;;;;;;5002073;28;20415;-75
2021/03/11 02:21:00;;;;;;;36.17;20.97;;;3.70;99.90;;;;;;5016235;28;20863;-74
2021/03/11 02:24:01;;;;;;;43.83;24.57;;;3.60;99.90;;;;;;5016319;28;20470;-72
2021/03/11 02:26:48;;;;;;;36.80;21.90;;;3.60;99.90;;;;;;5016220;28;20407;-73
2021/03/11 02:29:17;;;;;;;33.03;21.47;;;3.70;99.90;;;;;;5016226;28;20422;-73
2021/03/11 02:31:43;;;;;;;30.87;21.03;;;3.70;99.90;;;;;;5016199;28;20430;-74
2021/03/11 02:34:20;;;;;;;35.87;23.60;;;3.70;99.90;;;;;;5015981;28;20434;-73
2021/03/11 02:36:49;;;;;;;34.77;22.90;;;3.70;99.90;;;;;;5016218;28;20779;-72
2021/03/11 02:39:17;;;;;;;32.40;22.53;;;3.70;99.90;;;;;;5015904;28;20435;-73
2021/03/11 02:41:44;;;;;;;39.60;22.90;;;3.70;99.90;;;;;;4998073;28;20518;-73
2021/03/11 02:44:11;;;;;;;31.77;22.57;;;3.70;99.90;;;;;;5035047;28;20585;-74
2021/03/11 02:46:38;;;;;;;30.17;19.27;;;3.70;99.90;;;;;;5020321;28;20463;-74
2021/03/11 02:49:04;;;;;;;38.83;23.80;;;3.80;99.90;;;;;;5015881;28;20419;-74
2021/03/11 02:51:30;;;;;;;39.90;25.07;;;3.80;99.90;;;;;;5015609;28;20414;-74
2021/03/11 02:53:57;;;;;;;36.63;20.77;;;3.80;99.90;;;;;;5015485;28;20192;-74
2021/03/11 02:56:23;;;;;;;35.60;22.43;;;3.80;99.90;;;;;;5015387;28;20268;-73
2021/03/11 02:58:50;;;;;;;35.80;22.17;;;3.80;99.90;;;;;;5015867;28;20758;-73
2021/03/11 03:01:18;;;;;;;38.00;24.27;;;3.80;99.90;;;;;;5016038;28;20408;-74
2021/03/11 03:03:45;;;;;;;37.40;22.07;;;3.80;99.90;;;;;;5015554;28;20938;-73
2021/03/11 03:06:11;;;;;;;37.13;23.37;;;3.80;99.90;;;;;;5016053;28;20477;-74
2021/03/11 03:08:38;;;;;;;37.27;23.17;;;3.70;99.90;;;;;;5015793;28;20419;-74
2021/03/11 03:11:03;;;;;;;37.20;22.53;;;3.80;99.90;;;;;;5015658;28;20490;-74
2021/03/11 03:13:29;;;;;;;38.50;22.73;;;3.70;99.90;;;;;;5016037;28;20658;-74
2021/03/11 03:15:58;;;;;;;34.47;22.77;;;3.70;99.90;;;;;;5015257;28;20172;-73
2021/03/11 03:18:26;;;;;;;40.23;23.47;;;3.80;99.90;;;;;;5014010;28;20203;-73
2021/03/11 03:20:53;;;;;;;34.37;22.93;;;3.80;99.90;;;;;;4995922;28;20430;-73
2021/03/11 03:23:21;;;;;;;43.03;25.00;;;3.80;99.90;;;;;;4996028;28;20913;-73
2021/03/11 03:25:48;;;;;;;44.80;23.43;;;3.80;99.90;;;;;;4995122;28;20451;-74
2021/03/11 03:28:14;;;;;;;45.10;26.30;;;3.80;99.90;;;;;;4996163;28;20416;-72
2021/03/11 03:30:39;;;;;;;36.30;22.83;;;3.80;99.90;;;;;;4996190;28;20414;-73
2021/03/11 03:33:05;;;;;;;41.50;25.03;;;3.80;99.90;;;;;;4995828;28;20239;-73
2021/03/11 03:35:30;;;;;;;42.57;24.57;;;3.70;99.90;;;;;;4995489;28;20174;-73
2021/03/11 03:37:56;;;;;;;40.77;24.80;;;3.80;99.90;;;;;;4995108;28;20244;-73
2021/03/11 03:40:24;;;;;;;41.27;25.57;;;3.70;99.90;;;;;;5003577;28;20180;-74
2021/03/11 03:42:58;;;;;;;43.97;25.13;;;3.70;99.90;;;;;;5022945;28;20183;-75
2021/03/11 03:45:28;;;;;;;44.67;27.40;;;3.70;99.90;;;;;;5035272;28;20858;-73
2021/03/11 03:48:01;;;;;;;42.20;25.40;;;3.70;99.90;;;;;;5016749;28;20441;-74
2021/03/11 03:50:29;;;;;;;37.53;25.37;;;3.70;99.90;;;;;;5034352;28;20454;-73
2021/03/11 03:52:56;;;;;;;39.10;22.97;;;3.70;99.90;;;;;;5034230;28;20489;-74
2021/03/11 03:55:22;;;;;;;44.30;24.67;;;3.70;99.90;;;;;;5034695;28;20426;-74
2021/03/11 03:57:54;;;;;;;36.27;22.30;;;3.70;99.90;;;;;;5034604;28;20493;-72
2021/03/11 04:00:22;;;;;;;42.47;27.10;;;3.70;99.90;;;;;;5035201;28;20426;-73
2021/03/11 04:02:52;;;;;;;43.80;27.13;;;3.70;99.90;;;;;;5034679;28;20489;-73
2021/03/11 04:05:18;;;;;;;48.00;27.03;;;3.70;99.90;;;;;;5034323;28;20426;-73
2021/03/11 04:07:46;;;;;;;43.00;26.47;;;3.70;99.90;;;;;;5033548;28;20434;-73
2021/03/11 04:10:12;;;;;;;39.13;26.17;;;3.70;99.90;;;;;;5015143;28;20434;-75
2021/03/11 04:12:38;;;;;;;40.80;25.23;;;3.60;99.90;;;;;;5014257;28;21025;-75
2021/03/11 04:15:06;;;;;;;43.40;25.23;;;3.60;99.90;;;;;;5014049;28;20419;-74
2021/03/11 04:17:32;;;;;;;42.60;25.00;;;3.60;99.90;;;;;;5013719;28;20443;-74
2021/03/11 04:20:01;;;;;;;42.50;24.70;;;3.60;99.90;;;;;;5014195;28;20402;-74
2021/03/11 04:22:27;;;;;;;45.13;25.20;;;3.60;99.90;;;;;;5013830;28;20422;-74
2021/03/11 04:24:52;;;;;;;50.53;27.17;;;3.70;99.90;;;;;;5013809;28;20826;-74
2021/03/11 04:27:18;;;;;;;49.30;28.03;;;3.60;99.90;;;;;;5013397;28;20173;-75
2021/03/11 04:29:44;;;;;;;42.33;24.20;;;3.60;99.90;;;;;;5013454;28;20178;-74
2021/03/11 04:32:10;;;;;;;42.90;26.03;;;3.70;99.90;;;;;;5013299;28;20687;-74
2021/03/11 04:34:36;;;;;;;47.90;25.90;;;3.60;99.90;;;;;;5013292;28;20923;-74
2021/03/11 04:37:02;;;;;;;45.07;26.07;;;3.60;99.90;;;;;;5012525;28;20494;-75
2021/03/11 04:39:28;;;;;;;41.30;25.10;;;3.70;99.90;;;;;;5013144;28;20184;-74
2021/03/11 04:41:54;;;;;;;50.73;26.13;;;3.70;99.90;;;;;;5012951;28;20168;-74
2021/03/11 04:44:22;;;;;;;47.43;26.80;;;3.70;99.90;;;;;;5012725;28;20493;-74
2021/03/11 04:46:49;;;;;;;38.07;24.70;;;3.70;99.90;;;;;;5012893;28;20790;-74
2021/03/11 04:49:15;;;;;;;45.93;26.10;;;3.70;99.90;;;;;;5013064;28;20514;-74
2021/03/11 04:51:42;;;;;;;37.57;22.80;;;3.70;99.90;;;;;;5012833;28;20962;-74
2021/03/11 04:54:08;;;;;;;43.60;24.20;;;3.70;99.90;;;;;;5012879;28;20427;-74
2021/03/11 04:56:35;;;;;;;42.77;26.83;;;3.70;99.90;;;;;;5017439;28;20413;-74
2021/03/11 04:59:00;;;;;;;44.00;26.03;;;3.70;99.90;;;;;;5024058;28;20406;-74
2021/03/11 05:01:32;;;;;;;43.47;25.37;;;3.70;99.90;;;;;;5032581;28;20398;-74
2021/03/11 05:04:00;;;;;;;42.13;24.50;;;3.70;99.90;;;;;;5032631;28;20290;-74
2021/03/11 05:06:26;;;;;;;46.70;25.40;;;3.70;99.90;;;;;;5032307;28;20428;-73
2021/03/11 05:08:51;;;;;;;44.43;24.37;;;3.80;99.90;;;;;;5032540;28;20939;-73
2021/03/11 05:11:16;;;;;;;44.17;24.70;;;3.80;99.90;;;;;;5032480;28;20205;-74
2021/03/11 05:13:42;;;;;;;49.30;26.87;;;3.80;99.90;;;;;;5031953;28;20200;-73
2021/03/11 05:16:08;;;;;;;42.30;24.43;;;3.80;99.90;;;;;;5032118;28;20182;-74
2021/03/11 05:18:33;;;;;;;42.20;23.03;;;3.80;99.90;;;;;;5032219;28;20172;-74
2021/03/11 05:20:59;;;;;;;42.50;24.77;;;3.90;99.90;;;;;;5032349;28;20176;-74
2021/03/11 05:23:24;;;;;;;45.73;24.67;;;3.90;99.90;;;;;;5032469;28;20190;-74
2021/03/11 05:25:52;;;;;;;41.97;23.50;;;3.90;99.90;;;;;;5032376;28;20186;-75
2021/03/11 05:28:18;;;;;;;41.90;24.77;;;3.90;99.90;;;;;;5015350;28;20276;-76
2021/03/11 05:30:43;;;;;;;41.17;24.97;;;3.90;99.90;;;;;;5026396;28;20436;-74
2021/03/11 05:33:09;;;;;;;45.17;25.33;;;3.90;99.90;;;;;;5026101;28;20189;-73
2021/03/11 05:35:34;;;;;;;47.77;27.30;;;3.90;99.90;;;;;;5010810;28;20195;-75
2021/03/11 05:38:01;;;;;;;40.40;24.63;;;3.90;99.90;;;;;;4992945;28;20180;-75
2021/03/11 05:40:27;;;;;;;43.97;23.57;;;4.00;99.90;;;;;;4992901;28;20693;-74
2021/03/11 05:42:56;;;;;;;51.13;27.13;;;3.90;99.90;;;;;;5010259;28;20406;-74
2021/03/11 05:45:22;;;;;;;42.20;24.73;;;4.00;99.90;;;;;;5031679;28;20457;-75
2021/03/11 05:47:49;;;;;;;41.10;24.70;;;3.90;99.90;;;;;;5031065;28;20410;-73
2021/03/11 05:50:14;;;;;;;45.87;27.50;;;3.90;99.90;;;;;;5031970;28;20211;-74
2021/03/11 05:52:40;;;;;;;43.47;26.83;;;3.90;99.90;;;;;;5031792;28;20492;-74
2021/03/11 05:55:07;;;;;;;38.73;23.40;;;4.00;99.90;;;;;;5031659;28;20674;-74
2021/03/11 05:57:33;;;;;;;48.37;25.50;;;4.00;99.90;;;;;;5012872;28;20415;-74
2021/03/11 05:59:59;;;;;;;45.47;23.50;;;4.00;99.90;;;;;;5012123;28;20491;-74
2021/03/11 06:02:26;;;;;;;42.47;23.87;;;4.10;99.90;;;;;;5011969;28;20230;-75
2021/03/11 06:04:53;;;;;;;49.63;25.80;;;4.10;99.90;;;;;;5012041;28;20435;-75
2021/03/11 06:07:21;;;;;;;40.17;28.73;;;4.00;99.90;;;;;;5000072;28;20432;-74
2021/03/11 06:09:47;;;;;;;43.47;27.30;;;4.00;99.90;;;;;;4992473;28;20893;-74
2021/03/11 06:12:15;;;;;;;48.23;24.80;;;4.00;99.90;;;;;;4992115;28;20497;-74
2021/03/11 06:14:44;;;;;;;42.87;25.80;;;4.00;99.90;;;;;;4992226;28;20435;-75
2021/03/11 06:17:11;;;;;;;44.23;24.03;;;4.00;99.90;;;;;;4991936;28;20401;-74
2021/03/11 06:19:36;;;;;;;45.17;25.63;;;4.00;99.90;;;;;;4992467;28;20444;-74
2021/03/11 06:22:03;;;;;;;47.13;25.90;;;4.00;99.90;;;;;;4992256;28;20831;-74
2021/03/11 06:24:29;;;;;;;46.20;23.43;;;4.00;99.90;;;;;;4992593;28;20548;-74
2021/03/11 06:26:54;;;;;;;48.40;26.40;;;4.00;99.90;;;;;;4980571;28;20428;-74
2021/03/11 06:29:35;;;;;;;47.70;25.50;;;4.10;99.90;;;;;;4992090;28;20422;-74
2021/03/11 06:32:01;;;;;;;47.70;27.97;;;4.10;99.90;;;;;;4992305;28;20681;-75
2021/03/11 06:34:32;;;;;;;40.43;26.00;;;4.10;99.90;;;;;;4992233;28;20442;-74
2021/03/11 06:36:58;;;;;;;39.10;25.77;;;4.10;99.90;;;;;;4991958;28;20251;-74
2021/03/11 06:39:29;;;;;;;46.70;26.53;;;4.10;99.90;;;;;;4992141;28;21027;-74
2021/03/11 06:41:56;;;;;;;45.63;25.77;;;4.10;99.90;;;;;;4994110;28;20169;-74
2021/03/11 06:44:42;;;;;;;42.90;24.37;;;4.10;99.90;;;;;;5031326;28;20930;-75
2021/03/11 06:47:17;;;;;;;41.50;24.93;;;4.10;99.90;;;;;;5031125;28;20406;-76
2021/03/11 06:49:57;;;;;;;42.80;23.37;;;4.10;99.90;;;;;;5013648;28;20414;-76
2021/03/11 06:52:22;;;;;;;50.37;26.50;;;4.10;99.90;;;;;;5031268;28;20768;-76
2021/03/11 06:54:58;;;;;;;46.60;27.47;;;4.10;99.90;;;;;;5030980;28;20434;-75
2021/03/11 06:57:36;;;;;;;48.10;28.30;;;4.20;99.90;;;;;;5013677;28;20176;-75
2021/03/11 07:00:25;;;;;;;49.07;25.57;;;4.20;99.90;;;;;;5014190;28;20919;-75
2021/03/11 07:02:51;;;;;;;48.00;26.67;;;4.20;99.90;;;;;;5014396;28;20445;-75
2021/03/11 07:05:17;;;;;;;45.90;26.50;;;4.20;99.90;;;;;;5014753;28;20489;-75
2021/03/11 07:07:43;;;;;;;44.43;26.27;;;4.20;99.90;;;;;;5014515;28;20411;-75
2021/03/11 07:10:25;;;;;;;53.57;27.47;;;4.20;99.90;;;;;;5015470;28;20410;-76
2021/03/11 07:12:53;;;;;;;43.47;25.77;;;4.20;99.90;;;;;;5014752;28;20192;-76
2021/03/11 07:15:20;;;;;;;47.07;25.00;;;4.30;99.90;;;;;;5014453;28;20423;-74
2021/03/11 07:17:46;;;;;;;52.43;25.17;;;4.20;99.90;;;;;;5014464;28;20451;-76
2021/03/11 07:20:17;;;;;;;49.97;25.87;;;4.20;99.90;;;;;;4997080;28;20447;-74
2021/03/11 07:23:08;;;;;;;46.30;26.30;;;4.20;99.90;;;;;;4997023;28;20184;-76
2021/03/11 07:25:42;;;;;;;42.43;26.57;;;4.20;99.90;;;;;;5014511;28;20765;-75
2021/03/11 07:28:25;;;;;;;43.97;25.87;;;4.20;99.90;;;;;;5014983;28;20491;-74
2021/03/11 07:30:58;;;;;;;44.07;25.27;;;4.20;99.90;;;;;;5014523;28;20407;-73
2021/03/11 07:33:26;;;;;;;44.20;26.03;;;4.30;99.90;;;;;;5014320;28;20459;-73
2021/03/11 07:35:55;;;;;;;46.40;25.37;;;4.30;99.90;;;;;;5014607;28;20829;-76
2021/03/11 07:38:22;;;;;;;45.60;25.03;;;4.30;99.90;;;;;;5013980;28;20423;-76
2021/03/11 07:40:49;;;;;;;36.53;25.53;;;4.30;99.90;;;;;;5014559;28;20450;-73
2021/03/11 07:43:15;;;;;;;43.73;25.40;;;4.30;99.90;;;;;;5026206;28;20410;-74
2021/03/11 07:45:42;;;;;;;42.03;24.10;;;4.40;99.90;;;;;;5006388;28;20935;-74
2021/03/11 07:48:09;;;;;;;41.30;25.40;;;4.40;99.90;;;;;;5032111;28;20168;-74
2021/03/11 07:50:35;;;;;;;45.20;25.80;;;4.40;99.90;;;;;;5034343;28;20414;-75
2021/03/11 07:53:03;;;;;;;44.13;23.67;;;4.40;99.90;;;;;;5034020;28;20434;-75
2021/03/11 07:55:28;;;;;;;47.50;26.27;;;4.50;99.90;;;;;;5016564;28;20508;-74
2021/03/11 07:57:58;;;;;;;40.87;23.30;;;4.50;99.90;;;;;;5034334;28;20493;-75
2021/03/11 08:00:26;;;;;;;41.30;23.00;;;4.50;99.90;;;;;;5029366;28;20222;-75
2021/03/11 08:03:10;;;;;;;43.37;23.90;;;4.60;99.90;;;;;;5003575;28;20423;-75
2021/03/11 08:05:36;;;;;;;42.40;23.37;;;4.60;99.90;;;;;;5014398;28;20406;-74
2021/03/11 08:08:14;;;;;;;42.10;24.33;;;4.70;99.90;;;;;;4998170;28;20913;-75
2021/03/11 08:10:48;;;;;;;40.10;23.37;;;4.70;99.90;;;;;;4993845;28;20419;-75
2021/03/11 08:13:32;;;;;;;41.57;23.03;;;4.70;99.90;;;;;;4994434;28;20573;-74
2021/03/11 08:15:59;;;;;;;36.53;23.03;;;4.70;99.90;;;;;;4993879;28;20412;-74
2021/03/11 08:18:34;;;;;;;35.53;22.97;;;4.70;99.90;;;;;;4995027;28;20454;-74
2021/03/11 08:21:04;;;;;;;40.47;24.20;;;4.70;99.90;;;;;;5004432;28;20928;-75
2021/03/11 08:23:35;;;;;;;38.50;24.83;;;4.70;99.90;;;;;;5033217;28;20587;-75
2021/03/11 08:26:02;;;;;;;42.23;23.80;;;4.70;99.90;;;;;;5033232;28;20532;-75
2021/03/11 08:28:28;;;;;;;38.13;22.07;;;4.80;99.90;;;;;;5015471;28;20783;-76
2021/03/11 08:31:04;;;;;;;36.20;22.57;;;4.80;99.90;;;;;;5015802;28;20460;-76
2021/03/11 08:33:29;;;;;;;43.03;23.87;;;4.80;99.90;;;;;;5033326;28;20585;-75
2021/03/11 08:35:58;;;;;;;39.77;23.33;;;4.90;99.90;;;;;;5032815;28;20437;-76
2021/03/11 08:38:24;;;;;;;34.13;21.97;;;4.90;99.90;;;;;;5015048;28;20184;-73
2021/03/11 08:40:52;;;;;;;40.20;23.80;;;4.90;99.90;;;;;;4992680;28;20760;-74
2021/03/11 08:43:39;;;;;;;36.40;23.67;;;5.00;99.90;;;;;;5028013;28;20199;-74
2021/03/11 08:46:05;;;;;;;45.33;24.40;;;5.00;99.90;;;;;;5004703;28;20434;-75
2021/03/11 08:48:47;;;;;;;35.33;21.40;;;5.00;99.90;;;;;;5013041;28;20468;-75
2021/03/11 08:51:18;;;;;;;40.47;24.30;;;5.10;99.90;;;;;;5019131;28;20449;-74
2021/03/11 08:53:53;;;;;;;39.30;21.73;;;5.10;99.90;;;;;;5016452;28;20459;-74
2021/03/11 08:56:19;;;;;;;37.83;23.40;;;5.00;99.90;;;;;;5012257;28;20418;-74
2021/03/11 08:58:50;;;;;;;36.53;23.07;;;5.00;99.90;;;;;;5012920;28;20923;-75
2021/03/11 09:01:42;;;;;;;36.10;23.60;;;5.00;99.90;;;;;;5012613;28;20168;-74
2021/03/11 09:04:20;;;;;;;35.80;22.23;;;5.10;99.90;;;;;;5012665;28;20931;-75
2021/03/11 09:06:54;;;;;;;32.57;20.03;;;5.10;99.90;;;;;;5012725;28;20409;-75
2021/03/11 09:09:41;;;;;;;40.43;23.90;;;5.10;99.90;;;;;;5023629;28;20409;-75
2021/03/11 09:12:09;;;;;;;39.67;23.60;;;5.10;99.90;;;;;;4998322;28;20819;-75
2021/03/11 09:14:36;;;;;;;39.60;22.80;;;5.20;99.90;;;;;;5006812;28;20924;-75
2021/03/11 09:17:13;;;;;;;34.27;23.30;;;5.20;99.90;;;;;;5012317;28;20407;-75
2021/03/11 09:19:47;;;;;;;32.30;21.40;;;5.20;99.90;;;;;;5012438;28;20411;-74
2021/03/11 09:22:19;;;;;;;41.70;21.43;;;5.20;99.90;;;;;;5011380;28;20430;-75
2021/03/11 09:24:57;;;;;;;37.03;23.17;;;5.20;99.90;;;;;;5012222;28;20470;-75
2021/03/11 09:27:23;;;;;;;39.93;24.47;;;5.20;99.90;;;;;;5008640;28;20512;-74
2021/03/11 09:29:50;;;;;;;41.03;24.43;;;5.20;99.90;;;;;;4992631;28;20419;-74
2021/03/11 09:32:16;;;;;;;34.97;22.47;;;5.20;99.90;;;;;;4983167;28;20971;-75
2021/03/11 09:35:08;;;;;;;31.43;21.40;;;5.20;99.90;;;;;;5027732;28;20443;-75
2021/03/11 09:37:48;;;;;;;31.40;20.10;;;5.30;99.90;;;;;;5010260;28;20411;-74
2021/03/11 09:40:23;;;;;;;33.83;18.80;;;5.30;99.90;;;;;;5019085;28;20422;-74
2021/03/11 09:43:01;;;;;;;30.43;19.47;;;5.30;99.90;;;;;;5021386;28;20406;-74
2021/03/11 09:45:35;;;;;;;26.30;17.20;;;5.40;99.90;;;;;;5003976;28;20429;-75
2021/03/11 09:48:30;;;;;;;35.90;20.20;;;5.50;99.90;;;;;;5014820;28;20483;-74
2021/03/11 09:51:05;;;;;;;32.33;21.60;;;5.50;99.90;;;;;;5012050;28;20443;-74
2021/03/11 09:53:48;;;;;;;31.23;19.00;;;5.60;99.90;;;;;;5011720;28;20547;-74
2021/03/11 09:56:30;;;;;;;33.30;18.80;;;5.60;99.90;;;;;;5012146;28;20424;-73
2021/03/11 09:59:15;;;;;;;28.13;17.97;;;5.70;99.90;;;;;;5011941;28;20433;-74
2021/03/11 10:01:43;;;;;;;31.97;19.63;;;5.70;99.90;;;;;;5012208;28;20435;-75
2021/03/11 10:04:23;;;;;;;28.37;17.60;;;5.70;99.90;;;;;;5011766;28;20533;-75
2021/03/11 10:06:54;;;;;;;30.57;19.87;;;5.70;99.90;;;;;;4994464;28;20419;-74
2021/03/11 10:09:20;;;;;;;23.43;16.80;;;5.80;99.90;;;;;;5012053;28;20514;-74
2021/03/11 10:11:48;;;;;;;32.47;18.00;;;5.80;99.90;;;;;;5011893;28;20816;-74
2021/03/11 10:14:14;;;;;;;27.83;16.53;;;5.80;99.90;;;;;;5011932;28;20498;-74
2021/03/11 10:16:43;;;;;;;23.40;17.67;;;5.90;99.90;;;;;;5011678;28;20407;-74
2021/03/11 10:19:17;;;;;;;29.30;18.30;;;5.90;99.90;;;;;;5011929;28;20410;-75
2021/03/11 10:22:07;;;;;;;25.90;16.70;;;6.00;99.90;;;;;;5017667;28;20413;-74
2021/03/11 10:25:02;;;;;;;31.30;16.83;;;6.00;99.90;;;;;;5015049;28;20499;-75
2021/03/11 10:27:30;;;;;;;26.07;17.50;;;6.00;99.90;;;;;;5005118;28;20430;-74
2021/03/11 10:30:12;;;;;;;23.10;14.80;;;6.00;99.90;;;;;;5011902;28;20415;-75
2021/03/11 10:32:40;;;;;;;24.40;17.00;;;6.00;99.90;;;;;;5011743;28;20450;-75
2021/03/11 10:35:07;;;;;;;29.30;17.00;;;6.10;99.90;;;;;;5012208;28;20763;-75
2021/03/11 10:37:36;;;;;;;28.03;16.83;;;6.20;99.90;;;;;;5001371;28;20408;-75
2021/03/11 10:40:04;;;;;;;22.70;16.30;;;6.20;99.90;;;;;;5002828;28;20487;-75
2021/03/11 10:42:48;;;;;;;23.83;16.17;;;6.20;99.90;;;;;;5007228;28;20431;-75
2021/03/11 10:45:16;;;;;;;29.63;17.43;;;6.30;99.90;;;;;;5004518;28;20443;-75
2021/03/11 10:47:43;;;;;;;36.90;23.80;;;6.40;99.90;;;;;;5005833;28;20429;-74
2021/03/11 10:50:17;;;;;;;38.10;24.23;;;6.60;99.90;;;;;;5014693;28;20438;-72
2021/03/11 10:52:50;;;;;;;23.93;16.33;;;6.70;99.90;;;;;;5005298;28;20464;-74
2021/03/11 10:55:34;;;;;;;21.77;15.03;;;6.90;99.90;;;;;;4996251;28;20427;-73
2021/03/11 10:58:00;;;;;;;26.80;18.03;;;7.10;99.90;;;;;;5012841;28;20442;-74
2021/03/11 11:00:28;;;;;;;22.10;13.77;;;7.40;99.90;;;;;;5014907;28;20408;-74
2021/03/11 11:02:56;;;;;;;16.23;13.00;;;7.60;99.90;;;;;;5012200;28;20427;-73
2021/03/11 11:05:21;;;;;;;26.30;18.23;;;7.80;99.90;;;;;;4997788;28;20432;-72
2021/03/11 11:07:47;;;;;;;16.17;13.23;;;7.90;99.90;;;;;;4999933;28;20968;-73
2021/03/11 11:10:18;;;;;;;15.80;12.60;;;8.00;99.90;;;;;;5006969;28;20173;-73
2021/03/11 11:12:44;;;;;;;16.63;12.40;;;8.00;99.90;;;;;;5034250;28;20476;-73
2021/03/11 11:15:10;;;;;;;18.50;12.73;;;8.10;99.90;;;;;;5018038;28;20428;-73
2021/03/11 11:17:36;;;;;;;17.37;12.07;;;8.20;99.90;;;;;;5013560;28;20418;-73
2021/03/11 11:20:03;;;;;;;17.03;11.77;;;8.20;99.90;;;;;;5010902;28;20478;-73
2021/03/11 11:22:29;;;;;;;13.63;11.60;;;8.50;99.90;;;;;;5014635;28;20263;-73
2021/03/11 11:24:54;;;;;;;17.93;12.17;;;8.60;99.90;;;;;;5009166;28;20527;-73
2021/03/11 11:27:20;;;;;;;15.30;11.77;;;8.60;99.90;;;;;;5014577;28;20509;-73
2021/03/11 11:29:45;;;;;;;19.87;12.33;;;8.70;99.90;;;;;;5015481;28;20176;-74
2021/03/11 11:32:11;;;;;;;16.23;11.70;;;8.90;99.90;;;;;;5013229;28;20271;-73
2021/03/11 11:34:36;;;;;;;17.20;13.17;;;8.80;99.90;;;;;;4995866;28;20208;-72
2021/03/11 11:37:02;;;;;;;16.00;13.03;;;9.10;99.90;;;;;;5005596;28;20183;-73
2021/03/11 11:39:27;;;;;;;13.20;11.77;;;9.60;99.90;;;;;;5014442;28;20750;-76
2021/03/11 11:41:53;;;;;;;16.60;11.00;;;9.80;99.90;;;;;;5011632;28;20181;-74
2021/03/11 11:44:19;;;;;;;16.53;9.90;;;9.60;99.90;;;;;;5006719;28;20234;-73
2021/03/11 11:46:45;;;;;;;19.87;11.10;;;9.30;99.90;;;;;;5028236;28;20220;-73
2021/03/11 11:49:11;;;;;;;21.47;13.83;;;9.30;99.90;;;;;;5016644;28;20491;-74
2021/03/11 11:51:37;;;;;;;17.70;12.10;;;9.30;99.90;;;;;;5014617;28;20164;-72
2021/03/11 11:54:03;;;;;;;11.10;9.87;;;9.40;99.90;;;;;;5013796;28;20220;-70
2021/03/11 11:56:28;;;;;;;15.07;10.27;;;9.30;99.90;;;;;;5013806;28;20641;-73
2021/03/11 11:58:54;;;;;;;12.50;9.07;;;9.60;99.90;;;;;;5013274;28;20422;-74
2021/03/11 12:01:20;;;;;;;9.47;8.00;;;9.60;99.90;;;;;;5013611;28;20187;-74
2021/03/11 12:03:45;;;;;;;11.43;8.40;;;9.40;99.90;;;;;;5013590;28;20243;-74
2021/03/11 12:06:11;;;;;;;11.80;9.20;;;9.70;99.90;;;;;;5013920;28;20180;-74
2021/03/11 12:08:37;;;;;;;11.90;9.20;;;9.60;99.90;;;;;;5013713;28;20176;-72
2021/03/11 12:11:03;;;;;;;10.50;8.90;;;9.90;99.90;;;;;;5014089;28;20983;-74
2021/03/11 12:13:28;;;;;;;10.53;8.50;;;10.00;99.90;;;;;;5011575;28;20760;-74
2021/03/11 12:15:54;;;;;;;11.20;9.27;;;10.60;99.90;;;;;;4995911;28;20201;-74
2021/03/11 12:18:19;;;;;;;10.07;8.10;;;10.40;99.90;;;;;;4997924;28;20238;-73
2021/03/11 12:20:45;;;;;;;9.33;7.90;;;10.40;99.90;;;;;;5007134;28;20212;-74
2021/03/11 12:23:10;;;;;;;9.83;8.93;;;10.40;99.90;;;;;;4976606;28;20645;-74
2021/03/11 12:25:36;;;;;;;12.40;8.70;;;10.40;99.90;;;;;;4994193;28;20208;-74
2021/03/11 12:28:03;;;;;;;12.90;8.90;;;10.50;99.90;;;;;;4993682;28;20252;-73
2021/03/11 12:30:30;;;;;;;11.63;8.47;;;10.70;99.90;;;;;;5000861;28;20243;-74
2021/03/11 12:32:56;;;;;;;10.50;7.40;;;10.90;99.90;;;;;;5024655;28;20970;-73
2021/03/11 12:35:22;;;;;;;10.20;7.73;;;10.80;99.90;;;;;;5033028;28;20430;-74
2021/03/11 12:37:47;;;;;;;9.00;7.30;;;11.10;99.90;;;;;;5024628;28;20419;-74
2021/03/11 12:40:13;;;;;;;14.13;8.20;;;10.90;99.90;;;;;;5012907;28;20442;-73
2021/03/11 12:42:41;;;;;;;10.57;7.40;;;10.80;99.90;;;;;;5024162;28;20623;-73
2021/03/11 12:45:07;;;;;;;9.33;7.13;;;10.70;99.90;;;;;;5009710;28;20196;-74
2021/03/11 12:47:33;;;;;;;10.83;7.07;;;10.80;99.90;;;;;;4993579;28;20779;-74